createdAt,value
2019-04-23T00:02:46.100Z,15.80
2019-04-23T00:04:57.409Z,15.70
2019-04-23T00:07:39.659Z,15.70
2019-04-23T00:09:57.613Z,15.60
2019-04-23T00:12:38.109Z,15.60
2019-04-23T00:15:04.878Z,15.60
2019-04-23T00:17:35.856Z,15.50
2019-04-23T00:19:55.218Z,15.50
2019-04-23T00:22:37.068Z,15.50
2019-04-23T00:25:33.141Z,15.40
2019-04-23T00:30:18.908Z,15.30
2019-04-23T00:32:42.309Z,15.30
2019-04-23T00:35:05.990Z,15.20
2019-04-23T00:37:35.352Z,15.20
2019-04-23T00:40:02.536Z,15.20
2019-04-23T00:42:38.529Z,15.20
2019-04-23T00:45:01.734Z,15.30
2019-04-23T00:47:38.307Z,15.20
2019-04-23T00:50:12.661Z,15.20
2019-04-23T00:52:45.730Z,15.20
2019-04-23T00:55:09.950Z,15.20
2019-04-23T00:57:35.458Z,15.20
2019-04-23T01:00:02.041Z,15.20
2019-04-23T01:02:33.628Z,15.20
2019-04-23T01:05:04.690Z,15.10
2019-04-23T01:07:29.629Z,15.10
2019-04-23T01:10:08.767Z,15.00
2019-04-23T01:12:37.543Z,15.00
2019-04-23T01:15:04.734Z,15.00
2019-04-23T01:17:39.496Z,14.90
2019-04-23T01:20:12.515Z,14.90
2019-04-23T01:22:16.653Z,14.80
2019-04-23T01:25:04.739Z,14.80
2019-04-23T01:27:58.943Z,14.70
2019-04-23T01:30:27.703Z,14.50
2019-04-23T01:32:54.570Z,14.40
2019-04-23T01:35:39.682Z,14.40
2019-04-23T01:37:53.862Z,14.30
2019-04-23T01:40:28.910Z,14.30
2019-04-23T01:42:49.279Z,14.20
2019-04-23T01:45:24.179Z,14.20
2019-04-23T01:52:55.026Z,14.00
2019-04-23T01:55:26.287Z,13.90
2019-04-23T01:57:58.898Z,14.00
2019-04-23T02:00:22.769Z,14.00
2019-04-23T02:03:01.119Z,14.00
2019-04-23T02:05:22.895Z,14.00
2019-04-23T02:08:03.315Z,13.90
2019-04-23T02:10:20.500Z,13.90
2019-04-23T02:12:49.941Z,13.90
2019-04-23T02:15:17.000Z,14.00
2019-04-23T02:17:50.104Z,14.10
2019-04-23T02:20:16.055Z,14.10
2019-04-23T02:23:18.521Z,14.10
2019-04-23T02:25:44.067Z,14.10
2019-04-23T02:28:09.175Z,14.10
2019-04-23T02:30:57.863Z,14.10
2019-04-23T02:35:56.299Z,14.00
2019-04-23T02:43:13.069Z,13.80
2019-04-23T02:45:48.472Z,13.80
2019-04-23T02:48:24.116Z,13.70
2019-04-23T02:50:39.465Z,13.70
2019-04-23T02:53:14.829Z,13.70
2019-04-23T02:55:43.707Z,13.60
2019-04-23T02:58:11.130Z,13.50
2019-04-23T03:03:06.041Z,13.40
2019-04-23T03:10:40.386Z,13.20
2019-04-23T03:13:19.328Z,13.10
2019-04-23T03:19:02.618Z,13.10
2019-04-23T03:24:25.167Z,13.10
2019-04-23T03:26:47.658Z,13.20
2019-04-23T03:29:16.774Z,13.10
2019-04-23T03:34:15.118Z,13.10
2019-04-23T03:37:06.288Z,13.10
2019-04-23T03:43:51.930Z,13.20
2019-04-23T03:49:01.240Z,13.10
2019-04-23T03:51:36.485Z,13.10
2019-04-23T03:59:03.393Z,13.00
2019-04-23T04:01:48.711Z,13.00
2019-04-23T04:04:22.740Z,12.90
2019-04-23T04:09:08.107Z,13.00
2019-04-23T04:11:21.648Z,13.00
2019-04-23T04:14:03.449Z,12.90
2019-04-23T04:18:57.313Z,12.90
2019-04-23T04:21:29.889Z,12.90
2019-04-23T04:24:05.081Z,12.90
2019-04-23T04:28:54.917Z,12.80
2019-04-23T04:31:21.905Z,12.80
2019-04-23T04:34:01.117Z,12.80
2019-04-23T04:38:46.915Z,12.80
2019-04-23T04:41:14.347Z,12.80
2019-04-23T04:43:54.186Z,12.80
2019-04-23T04:46:21.285Z,12.80
2019-04-23T04:51:24.401Z,12.80
2019-04-23T04:53:50.800Z,12.70
2019-04-23T04:56:28.053Z,12.80
2019-04-23T05:06:31.190Z,12.70
2019-04-23T05:08:41.547Z,12.70
2019-04-23T05:11:08.595Z,12.70
2019-04-23T05:18:42.625Z,12.70
2019-04-23T05:21:23.971Z,12.70
2019-04-23T05:23:52.511Z,12.70
2019-04-23T05:26:23.921Z,12.70
2019-04-23T05:28:55.544Z,12.80
2019-04-23T05:31:15.808Z,12.80
2019-04-23T05:33:48.935Z,12.80
2019-04-23T05:36:26.209Z,12.80
2019-04-23T05:39:00.901Z,12.80
2019-04-23T05:41:19.998Z,12.80
2019-04-23T05:43:43.514Z,12.90
2019-04-23T05:46:14.303Z,12.90
2019-04-23T05:48:40.445Z,13.00
2019-04-23T05:51:11.237Z,13.00
2019-04-23T05:53:43.665Z,13.00
2019-04-23T05:58:36.941Z,13.10
2019-04-23T06:04:08.819Z,13.10
2019-04-23T06:08:59.762Z,13.20
2019-04-23T06:14:01.034Z,13.30
2019-04-23T06:16:31.456Z,13.30
2019-04-23T06:18:59.249Z,13.40
2019-04-23T06:21:31.300Z,13.50
2019-04-23T06:23:51.765Z,13.60
2019-04-23T06:26:39.551Z,13.50
2019-04-23T06:28:56.244Z,13.50
2019-04-23T06:31:24.497Z,13.60
2019-04-23T06:33:48.034Z,13.70
2019-04-23T06:36:24.232Z,13.90
2019-04-23T06:38:54.519Z,14.00
2019-04-23T06:41:15.359Z,13.90
2019-04-23T06:44:02.123Z,13.90
2019-04-23T06:46:24.200Z,14.00
2019-04-23T06:48:47.279Z,14.10
2019-04-23T06:51:37.933Z,14.00
2019-04-23T06:53:43.114Z,14.10
2019-04-23T06:56:22.383Z,14.10
2019-04-23T06:58:43.427Z,14.30
2019-04-23T07:01:09.566Z,14.30
2019-04-23T07:03:51.805Z,14.30
2019-04-23T07:06:28.578Z,14.30
2019-04-23T07:09:08.121Z,14.40
2019-04-23T07:11:23.463Z,14.50
2019-04-23T07:13:57.644Z,14.60
2019-04-23T07:16:11.378Z,14.60
2019-04-23T07:18:41.578Z,14.60
2019-04-23T07:21:12.973Z,14.60
2019-04-23T07:23:46.815Z,14.60
2019-04-23T07:26:17.523Z,14.70
2019-04-23T07:28:44.704Z,14.90
2019-04-23T07:31:15.199Z,15.00
2019-04-23T07:33:44.636Z,15.10
2019-04-23T07:36:15.614Z,15.10
2019-04-23T07:38:55.011Z,15.10
2019-04-23T07:41:32.253Z,15.20
2019-04-23T07:44:12.525Z,15.30
2019-04-23T07:46:56.310Z,15.40
2019-04-23T07:49:10.350Z,15.50
2019-04-23T07:56:35.763Z,16.00
2019-04-23T07:59:14.260Z,16.00
2019-04-23T08:01:34.874Z,16.10
2019-04-23T08:04:03.112Z,16.10
2019-04-23T08:06:33.205Z,15.90
2019-04-23T08:09:03.644Z,15.90
2019-04-23T08:16:35.230Z,16.30
2019-04-23T08:18:58.924Z,16.30
2019-04-23T08:21:32.037Z,16.50
2019-04-23T08:24:28.944Z,16.50
2019-04-23T08:26:59.065Z,16.50
2019-04-23T08:29:37.114Z,16.70
2019-04-23T08:32:13.832Z,16.70
2019-04-23T08:39:43.397Z,16.90
2019-04-23T08:42:33.114Z,17.00
2019-04-23T08:45:10.550Z,17.10
2019-04-23T08:48:00.727Z,17.20
2019-04-23T08:50:27.440Z,17.30
2019-04-23T08:52:38.285Z,17.40
2019-04-23T08:55:13.701Z,17.30
2019-04-23T08:57:32.161Z,17.40
2019-04-23T09:00:02.873Z,17.50
2019-04-23T09:02:43.875Z,17.60
2019-04-23T09:05:09.429Z,17.70
2019-04-23T09:10:07.700Z,17.80
2019-04-23T09:12:35.026Z,17.80
2019-04-23T09:15:07.847Z,18.00
2019-04-23T09:17:34.657Z,18.30
2019-04-23T09:25:03.962Z,18.30
2019-04-23T09:27:42.103Z,18.50
2019-04-23T09:30:02.622Z,18.60
2019-04-23T09:35:20.985Z,18.80
2019-04-23T09:38:10.146Z,19.10
2019-04-23T09:43:31.506Z,19.50
2019-04-23T09:46:22.485Z,19.40
2019-04-23T09:48:54.622Z,19.50
2019-04-23T09:51:17.664Z,19.50
2019-04-23T09:53:41.092Z,19.70
2019-04-23T09:56:19.513Z,19.80
2019-04-23T09:58:49.967Z,20.00
2019-04-23T10:01:20.472Z,20.10
2019-04-23T10:03:36.271Z,20.20
2019-04-23T10:05:59.811Z,20.20
2019-04-23T10:08:26.809Z,20.30
2019-04-23T10:10:49.108Z,20.50
2019-04-23T10:13:17.954Z,20.30
2019-04-23T10:15:48.080Z,20.40
2019-04-23T10:18:16.180Z,20.30
2019-04-23T10:20:44.600Z,20.30
2019-04-23T10:23:12.420Z,20.30
2019-04-23T10:25:40.302Z,20.30
2019-04-23T10:28:16.374Z,20.30
2019-04-23T10:30:44.903Z,20.40
2019-04-23T10:33:13.728Z,20.30
2019-04-23T10:35:51.538Z,20.40
2019-04-23T10:38:14.385Z,20.50
2019-04-23T10:40:43.978Z,20.60
2019-04-23T10:43:09.258Z,20.50
2019-04-23T10:46:03.961Z,20.40
2019-04-23T10:51:41.242Z,20.60
2019-04-23T10:54:24.035Z,20.70
2019-04-23T10:59:28.747Z,20.70
2019-04-23T11:02:15.983Z,20.70
2019-04-23T11:04:47.311Z,20.80
2019-04-23T11:07:17.070Z,20.70
2019-04-23T11:09:45.253Z,20.80
2019-04-23T11:12:02.126Z,20.90
2019-04-23T11:14:34.396Z,20.90
2019-04-23T11:17:17.778Z,21.00
2019-04-23T11:19:33.998Z,21.10
2019-04-23T11:22:13.251Z,21.10
2019-04-23T11:26:55.794Z,21.40
2019-04-23T11:32:31.729Z,21.30
2019-04-23T11:39:23.277Z,21.30
2019-04-23T11:41:59.735Z,21.40
2019-04-23T11:44:26.948Z,21.40
2019-04-23T11:49:33.060Z,21.60
2019-04-23T11:51:56.315Z,21.40
2019-04-23T11:54:17.907Z,21.40
2019-04-23T11:59:28.405Z,21.30
2019-04-23T12:02:07.149Z,21.20
2019-04-23T12:04:55.097Z,21.20
2019-04-23T12:07:22.803Z,21.30
2019-04-23T12:10:19.840Z,21.60
2019-04-23T12:15:13.434Z,21.90
2019-04-23T12:17:43.803Z,21.70
2019-04-23T12:20:16.218Z,21.60
2019-04-23T12:25:19.876Z,21.70
2019-04-23T12:27:33.145Z,21.90
2019-04-23T12:38:04.180Z,22.20
2019-04-23T12:40:46.562Z,22.30
2019-04-23T12:43:04.934Z,22.40
2019-04-23T12:48:09.781Z,22.80
2019-04-23T12:50:51.647Z,23.00
2019-04-23T12:53:05.024Z,23.10
2019-04-23T12:58:01.174Z,23.30
2019-04-23T13:02:56.226Z,23.30
2019-04-23T13:05:28.918Z,23.10
2019-04-23T13:08:24.881Z,23.10
2019-04-23T13:10:28.362Z,23.30
2019-04-23T13:15:22.532Z,23.50
2019-04-23T13:20:23.518Z,23.40
2019-04-23T13:22:57.715Z,23.30
2019-04-23T13:25:49.609Z,23.50
2019-04-23T13:30:53.139Z,24.00
2019-04-23T13:33:28.266Z,24.20
2019-04-23T13:35:53.335Z,24.40
2019-04-23T13:45:59.594Z,24.50
2019-04-23T13:48:10.831Z,24.70
2019-04-23T13:50:55.387Z,24.80
2019-04-23T13:53:31.662Z,25.10
2019-04-23T13:55:42.903Z,24.90
2019-04-23T13:58:14.678Z,25.00
2019-04-23T14:00:58.098Z,25.40
2019-04-23T14:11:03.610Z,25.40
2019-04-23T14:13:46.317Z,25.20
2019-04-23T14:21:08.088Z,24.90
2019-04-23T14:23:59.121Z,25.00
2019-04-23T14:28:37.369Z,25.00
2019-04-23T14:31:07.955Z,24.90
2019-04-23T14:36:03.234Z,24.50
2019-04-23T14:38:41.663Z,24.50
2019-04-23T14:41:12.483Z,24.50
2019-04-23T14:43:30.928Z,24.70
2019-04-23T14:51:25.636Z,24.90
2019-04-23T14:53:53.806Z,24.80
2019-04-23T14:56:23.956Z,25.00
2019-04-23T14:58:53.466Z,25.10
2019-04-23T15:03:46.829Z,25.20
2019-04-23T15:06:27.713Z,25.10
2019-04-23T15:11:24.694Z,25.20
2019-04-23T15:13:45.583Z,25.40
2019-04-23T15:22:16.920Z,25.20
2019-04-23T15:24:13.930Z,25.40
2019-04-23T15:28:53.986Z,25.30
2019-04-23T15:31:39.390Z,25.10
2019-04-23T15:39:19.543Z,25.10
2019-04-23T15:41:38.221Z,25.40
2019-04-23T15:46:40.907Z,25.80
2019-04-23T15:51:38.508Z,25.90
2019-04-23T15:59:18.535Z,25.70
2019-04-23T16:01:37.212Z,25.40
2019-04-23T16:03:30.184Z,25.40
2019-04-23T16:05:59.422Z,25.40
2019-04-23T16:14:15.800Z,25.00
2019-04-23T16:16:31.529Z,24.80
2019-04-23T16:19:07.983Z,24.80
2019-04-23T16:21:51.403Z,24.90
2019-04-23T16:24:06.109Z,25.00
2019-04-23T16:31:34.581Z,24.90
2019-04-23T16:34:25.648Z,24.80
2019-04-23T16:36:55.774Z,24.80
2019-04-23T16:39:16.285Z,24.70
2019-04-23T16:44:20.072Z,24.70
2019-04-23T16:46:56.171Z,24.60
2019-04-23T16:49:19.380Z,24.50
2019-04-23T16:51:45.935Z,24.40
2019-04-23T16:54:19.092Z,24.20
2019-04-23T16:57:01.434Z,24.00
2019-04-23T16:59:18.702Z,23.90
2019-04-23T17:01:44.123Z,23.80
2019-04-23T17:04:19.633Z,23.70
2019-04-23T17:06:44.327Z,23.60
2019-04-23T17:09:15.845Z,23.50
2019-04-23T17:11:53.110Z,23.30
2019-04-23T17:19:10.942Z,23.00
2019-04-23T17:21:57.309Z,23.00
2019-04-23T17:24:14.620Z,22.90
2019-04-23T17:29:05.824Z,22.60
2019-04-23T17:34:10.837Z,22.50
2019-04-23T17:39:46.973Z,22.40
2019-04-23T17:45:06.082Z,22.00
2019-04-23T17:47:42.824Z,21.90
2019-04-23T17:50:16.413Z,21.70
2019-04-23T17:52:41.827Z,21.60
2019-04-23T17:55:13.349Z,21.50
2019-04-23T18:02:55.455Z,21.10
2019-04-23T18:10:22.250Z,20.60
2019-04-23T18:15:04.735Z,20.40
2019-04-23T18:17:45.279Z,20.20
2019-04-23T18:20:24.775Z,20.00
2019-04-23T18:23:00.721Z,19.80
2019-04-23T18:25:45.683Z,19.60
2019-04-23T18:28:08.961Z,19.40
2019-04-23T18:31:06.182Z,19.30
2019-04-23T18:36:02.475Z,19.00
2019-04-23T18:38:55.299Z,18.70
2019-04-23T18:41:05.443Z,18.60
2019-04-23T18:46:10.135Z,18.40
2019-04-23T18:58:44.839Z,17.90
2019-04-23T19:01:05.320Z,17.90
2019-04-23T19:06:41.126Z,17.90
2019-04-23T19:10:05.638Z,17.90
2019-04-23T19:12:31.389Z,17.90
2019-04-23T19:14:56.199Z,17.90
2019-04-23T19:17:43.006Z,17.80
2019-04-23T19:24:45.168Z,17.60
2019-04-23T19:32:14.250Z,17.70
2019-04-23T19:35:16.527Z,17.70
2019-04-23T19:37:30.334Z,17.70
2019-04-23T19:39:52.094Z,17.70
2019-04-23T19:42:18.066Z,17.70
2019-04-23T19:44:48.184Z,17.70
2019-04-23T19:49:51.329Z,17.70
2019-04-23T19:52:52.366Z,17.70
2019-04-23T19:54:58.796Z,17.70
2019-04-23T19:57:22.840Z,17.60
2019-04-23T20:02:20.017Z,17.60
2019-04-23T20:12:09.448Z,17.30
2019-04-23T20:17:34.074Z,17.10
2019-04-23T20:27:15.508Z,16.70
2019-04-23T20:30:15.512Z,16.60
2019-04-23T20:35:11.248Z,16.30
2019-04-23T20:38:20.557Z,16.20
2019-04-23T20:40:23.671Z,16.10
2019-04-23T20:42:46.948Z,16.10
2019-04-23T20:45:16.519Z,16.00
2019-04-23T20:47:48.627Z,15.90
2019-04-23T20:50:06.937Z,15.80
2019-04-23T20:52:43.041Z,15.70
2019-04-23T20:55:06.786Z,15.70
2019-04-23T20:57:48.566Z,15.70
2019-04-23T21:00:25.977Z,15.60
2019-04-23T21:03:30.970Z,15.60
2019-04-23T21:08:13.875Z,15.50
2019-04-23T21:15:38.894Z,15.20
2019-04-23T21:18:10.859Z,15.10
2019-04-23T21:23:09.399Z,14.90
2019-04-23T21:25:30.507Z,14.70
2019-04-23T21:28:08.612Z,14.60
2019-04-23T21:33:52.126Z,14.40
2019-04-23T21:36:35.451Z,14.10
2019-04-23T21:47:01.267Z,13.70
2019-04-23T21:49:40.695Z,13.60
2019-04-23T21:52:02.223Z,13.50
2019-04-23T21:54:22.976Z,13.50
2019-04-23T21:59:29.534Z,13.30
2019-04-23T22:01:59.298Z,13.30
2019-04-23T22:09:21.222Z,13.30
2019-04-23T22:14:16.946Z,13.30
2019-04-23T22:16:57.638Z,13.30
2019-04-23T22:19:20.109Z,13.30
2019-04-23T22:21:54.456Z,13.30
2019-04-23T22:24:39.853Z,13.20
2019-04-23T22:31:47.435Z,13.00
2019-04-23T22:36:51.909Z,12.90
2019-04-23T22:39:17.676Z,12.90
2019-04-23T22:41:54.063Z,12.90
2019-04-23T22:44:14.392Z,12.80
2019-04-23T22:56:50.096Z,12.90
2019-04-23T22:59:26.378Z,12.90
2019-04-23T23:01:53.670Z,12.80
2019-04-23T23:04:24.324Z,12.70
2019-04-23T23:07:03.296Z,12.60
2019-04-23T23:11:49.073Z,12.60
2019-04-23T23:14:14.617Z,12.60
2019-04-23T23:19:16.994Z,12.50
2019-04-23T23:21:53.549Z,12.40
2019-04-23T23:24:10.076Z,12.40
2019-04-23T23:26:42.633Z,12.30
2019-04-23T23:29:04.411Z,12.10
2019-04-23T23:31:40.017Z,12.10
2019-04-23T23:36:40.405Z,12.00
2019-04-23T23:39:06.835Z,12.00
2019-04-23T23:41:33.809Z,11.90
2019-04-23T23:44:27.689Z,11.80
2019-04-23T23:46:37.851Z,11.90
2019-04-23T23:49:03.292Z,11.90
2019-04-23T23:51:39.852Z,11.80
2019-04-23T23:56:30.789Z,11.60
2019-04-23T23:59:03.882Z,11.50
